createdAt,value
2022-08-17T00:00:52.271Z,82.56
2022-08-17T00:03:19.337Z,82.81
2022-08-17T00:05:47.822Z,82.75
2022-08-17T00:08:15.034Z,82.27
2022-08-17T00:10:42.403Z,82.84
2022-08-17T00:13:10.309Z,82.59
2022-08-17T00:15:37.128Z,82.18
2022-08-17T00:18:03.973Z,83.37
2022-08-17T00:20:50.269Z,83.29
2022-08-17T00:23:17.208Z,82.86
2022-08-17T00:25:45.684Z,83.76
2022-08-17T00:28:12.429Z,82.90
2022-08-17T00:30:53.139Z,82.70
2022-08-17T00:33:25.530Z,83.38
2022-08-17T00:35:52.551Z,82.79
2022-08-17T00:38:18.891Z,82.56
2022-08-17T00:40:47.020Z,83.28
2022-08-17T00:43:14.353Z,83.55
2022-08-17T00:45:41.083Z,84.36
2022-08-17T00:48:11.543Z,83.87
2022-08-17T00:51:03.295Z,84.10
2022-08-17T00:53:31.233Z,82.46
2022-08-17T00:56:02.074Z,83.22
2022-08-17T00:58:35.895Z,83.14
2022-08-17T01:01:03.888Z,82.17
2022-08-17T01:03:31.159Z,82.95
2022-08-17T01:05:59.988Z,82.13
2022-08-17T01:08:28.066Z,81.99
2022-08-17T01:10:58.587Z,81.63
2022-08-17T01:13:28.923Z,82.37
2022-08-17T01:15:57.717Z,81.41
2022-08-17T01:18:25.150Z,81.64
2022-08-17T01:20:53.975Z,81.06
2022-08-17T01:23:22.207Z,81.63
2022-08-17T01:25:54.029Z,80.83
2022-08-17T01:28:52.810Z,81.63
2022-08-17T01:31:07.901Z,80.90
2022-08-17T01:33:35.035Z,81.56
2022-08-17T01:36:01.571Z,80.73
2022-08-17T01:38:31.765Z,81.34
2022-08-17T01:41:03.127Z,80.78
2022-08-17T01:43:39.926Z,81.49
2022-08-17T01:46:06.301Z,81.65
2022-08-17T01:48:33.525Z,81.94
2022-08-17T01:51:00.027Z,82.11
2022-08-17T01:53:29.407Z,81.31
2022-08-17T01:55:57.806Z,81.35
2022-08-17T01:58:24.441Z,82.08
2022-08-17T02:01:00.250Z,82.24
2022-08-17T02:03:27.956Z,82.13
2022-08-17T02:05:54.368Z,82.08
2022-08-17T02:08:21.332Z,82.44
2022-08-17T02:11:08.919Z,82.12
2022-08-17T02:13:38.059Z,82.12
2022-08-17T02:16:04.379Z,82.36
2022-08-17T02:18:30.692Z,82.25
2022-08-17T02:20:57.363Z,82.54
2022-08-17T02:23:24.843Z,82.69
2022-08-17T02:25:51.230Z,82.46
2022-08-17T02:28:18.475Z,82.82
2022-08-17T02:31:01.332Z,82.58
2022-08-17T02:33:41.914Z,82.42
2022-08-17T02:36:11.374Z,83.23
2022-08-17T02:38:37.896Z,82.95
2022-08-17T02:41:04.563Z,82.42
2022-08-17T02:43:31.267Z,82.58
2022-08-17T02:45:57.730Z,81.93
2022-08-17T02:48:31.225Z,82.63
2022-08-17T02:50:58.107Z,82.52
2022-08-17T02:53:24.452Z,81.46
2022-08-17T02:55:52.370Z,81.91
2022-08-17T02:58:34.540Z,81.66
2022-08-17T03:01:03.314Z,81.68
2022-08-17T03:03:29.763Z,81.19
2022-08-17T03:05:56.352Z,81.33
2022-08-17T03:08:23.291Z,81.78
2022-08-17T03:10:50.385Z,81.50
2022-08-17T03:13:17.280Z,80.79
2022-08-17T03:15:45.157Z,81.70
2022-08-17T03:18:24.195Z,81.36
2022-08-17T03:20:52.738Z,80.76
2022-08-17T03:23:19.055Z,81.37
2022-08-17T03:25:52.798Z,80.78
2022-08-17T03:28:20.531Z,81.39
2022-08-17T03:30:47.032Z,81.48
2022-08-17T03:33:13.710Z,80.96
2022-08-17T03:35:40.526Z,81.62
2022-08-17T03:38:08.675Z,81.17
2022-08-17T03:40:57.892Z,81.44
2022-08-17T03:43:22.132Z,81.45
2022-08-17T03:46:19.302Z,82.02
2022-08-17T03:49:11.909Z,82.90
2022-08-17T03:51:56.647Z,83.15
2022-08-17T03:54:41.421Z,82.56
2022-08-17T03:57:09.350Z,82.47
2022-08-17T03:59:36.675Z,82.11
2022-08-17T04:02:11.449Z,81.91
2022-08-17T04:04:38.464Z,82.24
2022-08-17T04:07:05.759Z,83.29
2022-08-17T04:09:32.120Z,83.13
2022-08-17T04:12:01.185Z,85.23
2022-08-17T04:14:39.253Z,85.49
2022-08-17T04:17:18.852Z,84.82
2022-08-17T04:19:46.354Z,84.63
2022-08-17T04:22:32.680Z,84.81
2022-08-17T04:24:59.539Z,84.09
2022-08-17T04:27:25.845Z,84.76
2022-08-17T04:29:55.338Z,85.01
2022-08-17T04:32:58.519Z,83.92
2022-08-17T04:35:09.449Z,83.71
2022-08-17T04:37:35.777Z,83.18
2022-08-17T04:40:20.502Z,82.96
2022-08-17T04:43:00.180Z,83.78
2022-08-17T04:45:27.352Z,83.10
2022-08-17T04:47:58.449Z,82.50
2022-08-17T04:50:24.966Z,83.04
2022-08-17T04:52:51.273Z,82.67
2022-08-17T04:55:17.594Z,82.21
2022-08-17T04:57:45.221Z,82.32
2022-08-17T05:00:11.831Z,83.16
2022-08-17T05:02:50.121Z,82.39
2022-08-17T05:05:20.857Z,82.34
2022-08-17T05:07:47.247Z,82.15
2022-08-17T05:10:13.650Z,83.07
2022-08-17T05:12:39.944Z,82.33
2022-08-17T05:15:10.389Z,84.06
2022-08-17T05:17:36.716Z,84.29
2022-08-17T05:20:03.200Z,83.73
2022-08-17T05:22:29.543Z,83.94
2022-08-17T05:24:55.854Z,84.50
2022-08-17T05:27:22.728Z,83.72
2022-08-17T05:32:38.224Z,84.10
2022-08-17T05:35:02.382Z,84.32
2022-08-17T05:37:28.659Z,83.27
2022-08-17T05:39:55.133Z,83.28
2022-08-17T05:42:21.572Z,83.84
2022-08-17T05:44:47.869Z,83.62
2022-08-17T05:47:14.196Z,83.73
2022-08-17T05:49:40.606Z,84.68
2022-08-17T05:52:06.914Z,85.54
2022-08-17T05:54:33.200Z,85.81
2022-08-17T05:57:02.234Z,86.25
2022-08-17T05:59:48.123Z,86.35
2022-08-17T06:02:18.781Z,83.82
2022-08-17T06:04:45.067Z,83.41
2022-08-17T06:07:11.364Z,83.00
2022-08-17T06:09:45.950Z,83.25
2022-08-17T06:12:30.829Z,82.26
2022-08-17T06:15:07.357Z,81.82
2022-08-17T06:17:34.194Z,81.43
2022-08-17T06:20:04.342Z,82.17
2022-08-17T06:22:33.315Z,81.71
2022-08-17T06:25:04.559Z,81.83
2022-08-17T06:27:48.627Z,81.28
2022-08-17T06:30:20.230Z,82.59
2022-08-17T06:32:48.852Z,83.32
2022-08-17T06:35:18.309Z,82.93
2022-08-17T06:38:00.786Z,82.86
2022-08-17T06:40:50.188Z,81.50
2022-08-17T06:43:35.337Z,82.75
2022-08-17T06:46:11.391Z,82.19
2022-08-17T06:48:42.586Z,81.56
2022-08-17T06:51:21.450Z,81.50
2022-08-17T06:53:51.064Z,79.95
2022-08-17T06:56:24.276Z,80.49
2022-08-17T06:59:14.461Z,81.70
2022-08-17T07:01:41.923Z,81.27
2022-08-17T07:04:19.976Z,78.87
2022-08-17T07:07:26.558Z,77.44
2022-08-17T07:09:53.816Z,77.83
2022-08-17T07:12:22.550Z,78.73
2022-08-17T07:14:51.706Z,78.18
2022-08-17T07:17:18.687Z,77.96
2022-08-17T07:19:46.211Z,77.03
2022-08-17T07:22:55.304Z,77.12
2022-08-17T07:25:18.463Z,76.73
2022-08-17T07:27:53.839Z,75.46
2022-08-17T07:30:22.231Z,75.55
2022-08-17T07:32:54.843Z,77.25
2022-08-17T07:35:31.257Z,77.75
2022-08-17T07:38:25.068Z,77.52
2022-08-17T07:41:05.919Z,76.85
2022-08-17T07:43:36.713Z,78.06
2022-08-17T07:46:21.837Z,78.33
2022-08-17T07:48:50.454Z,79.20
2022-08-17T07:51:18.974Z,75.09
2022-08-17T07:53:45.539Z,74.06
2022-08-17T07:56:34.400Z,76.83
2022-08-17T07:59:10.486Z,74.65
2022-08-17T08:01:41.601Z,74.41
2022-08-17T08:04:43.215Z,74.41
2022-08-17T08:07:13.818Z,74.59
2022-08-17T08:09:41.650Z,75.82
2022-08-17T08:12:28.936Z,75.32
2022-08-17T08:15:09.285Z,75.23
2022-08-17T08:17:49.572Z,75.20
2022-08-17T08:20:34.892Z,75.76
2022-08-17T08:23:06.478Z,73.92
2022-08-17T08:25:43.360Z,76.05
2022-08-17T08:28:09.708Z,76.35
2022-08-17T08:30:38.385Z,74.05
2022-08-17T08:33:04.686Z,73.97
2022-08-17T08:35:32.726Z,75.86
2022-08-17T08:38:25.445Z,75.55
2022-08-17T08:40:54.801Z,75.68
2022-08-17T08:43:27.466Z,73.10
2022-08-17T08:46:12.398Z,73.80
2022-08-17T08:48:53.657Z,72.72
2022-08-17T08:51:39.641Z,58.65
2022-08-17T08:54:28.358Z,69.25
2022-08-17T08:59:57.905Z,69.90
2022-08-17T09:02:48.198Z,66.23
2022-08-17T09:05:21.316Z,66.02
2022-08-17T09:07:51.136Z,65.00
2022-08-17T09:10:39.061Z,64.39
2022-08-17T09:13:10.938Z,64.03
2022-08-17T09:15:42.349Z,62.39
2022-08-17T09:19:03.500Z,63.86
2022-08-17T09:20:54.944Z,64.52
2022-08-17T09:23:27.348Z,64.55
2022-08-17T09:26:06.194Z,60.36
2022-08-17T09:28:36.835Z,60.63
2022-08-17T09:31:11.598Z,60.57
2022-08-17T09:33:42.410Z,62.37
2022-08-17T09:36:11.651Z,63.11
2022-08-17T09:38:52.975Z,62.17
2022-08-17T09:41:38.091Z,61.88
2022-08-17T09:44:05.052Z,61.06
2022-08-17T09:46:35.713Z,61.00
2022-08-17T09:49:11.729Z,58.86
2022-08-17T09:51:41.124Z,61.13
2022-08-17T09:54:44.511Z,61.83
2022-08-17T09:57:30.323Z,61.16
2022-08-17T10:00:09.370Z,59.41
2022-08-17T10:03:00.401Z,59.64
2022-08-17T10:05:56.587Z,59.21
2022-08-17T10:08:32.040Z,59.91
2022-08-17T10:11:55.731Z,59.20
2022-08-17T10:14:56.264Z,59.58
2022-08-17T10:17:36.308Z,59.80
2022-08-17T10:20:02.597Z,59.01
2022-08-17T10:22:53.102Z,60.10
2022-08-17T10:25:53.985Z,60.14
2022-08-17T10:28:28.834Z,57.73
2022-08-17T10:31:23.347Z,58.92
2022-08-17T10:33:50.958Z,59.40
2022-08-17T10:36:32.857Z,59.75
2022-08-17T10:39:08.441Z,58.30
2022-08-17T10:41:43.491Z,58.40
2022-08-17T10:44:38.077Z,58.31
2022-08-17T10:47:11.686Z,57.40
2022-08-17T10:49:39.346Z,56.55
2022-08-17T10:52:21.836Z,54.65
2022-08-17T10:54:51.012Z,56.33
2022-08-17T10:57:26.978Z,55.67
2022-08-17T10:59:57.211Z,54.67
2022-08-17T11:02:26.930Z,55.78
2022-08-17T11:04:53.222Z,56.57
2022-08-17T11:07:38.099Z,55.80
2022-08-17T11:10:10.454Z,57.30
2022-08-17T11:12:45.861Z,58.06
2022-08-17T11:15:18.158Z,58.71
2022-08-17T11:17:51.054Z,58.25
2022-08-17T11:20:29.888Z,57.75
2022-08-17T11:23:10.100Z,56.30
2022-08-17T11:25:40.934Z,57.30
2022-08-17T11:28:28.145Z,57.58
2022-08-17T11:30:57.065Z,58.21
2022-08-17T11:33:29.867Z,59.77
2022-08-17T11:36:12.256Z,60.10
2022-08-17T11:38:57.977Z,59.19
2022-08-17T11:41:42.987Z,59.71
2022-08-17T11:44:28.173Z,59.41
2022-08-17T11:47:16.616Z,56.41
2022-08-17T11:50:28.332Z,56.37
2022-08-17T11:52:54.964Z,57.37
2022-08-17T11:55:35.793Z,55.09
2022-08-17T11:58:06.542Z,56.44
2022-08-17T12:00:44.735Z,57.39
2022-08-17T12:03:22.540Z,56.38
2022-08-17T12:05:50.242Z,55.12
2022-08-17T12:08:21.591Z,54.43
2022-08-17T12:11:00.575Z,53.74
2022-08-17T12:13:30.613Z,53.66
2022-08-17T12:16:07.262Z,55.09
2022-08-17T12:18:37.472Z,54.66
2022-08-17T12:21:19.382Z,54.38
2022-08-17T12:23:50.141Z,55.48
2022-08-17T12:26:20.991Z,55.49
2022-08-17T12:28:49.034Z,54.88
2022-08-17T12:31:24.617Z,56.16
2022-08-17T12:33:51.784Z,55.14
2022-08-17T12:36:26.144Z,55.25
2022-08-17T12:38:57.198Z,55.49
2022-08-17T12:41:34.148Z,55.62
2022-08-17T12:44:03.341Z,56.35
2022-08-17T12:46:33.385Z,55.47
2022-08-17T12:49:16.156Z,54.64
2022-08-17T12:51:43.951Z,55.50
2022-08-17T12:54:21.952Z,55.80
2022-08-17T12:56:48.322Z,55.07
2022-08-17T12:59:15.291Z,54.95
2022-08-17T13:01:56.664Z,53.53
2022-08-17T13:04:24.125Z,54.56
2022-08-17T13:06:59.524Z,56.35
2022-08-17T13:09:35.567Z,54.83
2022-08-17T13:12:06.394Z,55.27
2022-08-17T13:14:34.158Z,54.10
2022-08-17T13:17:02.039Z,53.78
2022-08-17T13:19:40.897Z,55.45
2022-08-17T13:22:09.816Z,55.81
2022-08-17T13:24:38.262Z,56.58
2022-08-17T13:27:09.979Z,57.57
2022-08-17T13:29:51.331Z,56.21
2022-08-17T13:32:39.961Z,56.25
2022-08-17T13:35:32.817Z,54.49
2022-08-17T13:38:06.453Z,54.35
2022-08-17T13:40:37.161Z,54.98
2022-08-17T13:43:03.962Z,54.07
2022-08-17T13:45:36.302Z,55.24
2022-08-17T13:48:06.562Z,54.67
2022-08-17T13:50:33.214Z,54.62
2022-08-17T13:52:59.732Z,54.41
2022-08-17T13:55:28.129Z,53.88
2022-08-17T13:58:04.142Z,54.35
2022-08-17T14:00:35.437Z,55.54
2022-08-17T14:03:02.707Z,53.16
2022-08-17T14:05:30.390Z,53.53
2022-08-17T14:07:58.992Z,53.14
2022-08-17T14:10:25.532Z,54.65
2022-08-17T14:12:52.754Z,55.13
2022-08-17T14:15:21.187Z,55.54
2022-08-17T14:17:49.123Z,55.87
2022-08-17T14:20:17.047Z,56.63
2022-08-17T14:22:45.067Z,56.83
2022-08-17T14:25:12.147Z,56.99
2022-08-17T14:27:52.467Z,57.74
2022-08-17T14:30:21.820Z,56.73
2022-08-17T14:32:49.011Z,55.86
2022-08-17T14:35:16.144Z,54.99
2022-08-17T14:37:44.629Z,54.23
2022-08-17T14:40:12.606Z,55.02
2022-08-17T14:42:40.667Z,53.38
2022-08-17T14:45:29.980Z,54.14
2022-08-17T14:47:54.739Z,54.22
2022-08-17T14:50:22.145Z,52.86
2022-08-17T14:52:49.147Z,53.87
2022-08-17T14:55:18.170Z,55.05
2022-08-17T14:57:45.174Z,54.67
2022-08-17T15:00:11.715Z,54.11
2022-08-17T15:02:53.566Z,53.44
2022-08-17T15:05:21.096Z,52.46
2022-08-17T15:07:47.469Z,53.95
2022-08-17T15:10:14.321Z,55.07
2022-08-17T15:12:41.059Z,55.08
2022-08-17T15:15:08.974Z,56.17
2022-08-17T15:17:45.098Z,56.72
2022-08-17T15:20:20.785Z,55.42
2022-08-17T15:22:49.787Z,56.35
2022-08-17T15:25:17.611Z,57.57
2022-08-17T15:27:44.068Z,57.69
2022-08-17T15:30:11.670Z,58.22
2022-08-17T15:32:39.236Z,58.51
2022-08-17T15:35:06.463Z,55.26
2022-08-17T15:37:33.390Z,57.35
2022-08-17T15:40:03.399Z,59.77
2022-08-17T15:42:29.849Z,60.35
2022-08-17T15:44:56.400Z,60.55
2022-08-17T15:47:23.270Z,61.22
2022-08-17T15:49:50.671Z,60.81
2022-08-17T15:52:18.465Z,61.20
2022-08-17T15:54:53.636Z,60.77
2022-08-17T15:57:20.425Z,61.06
2022-08-17T15:59:47.722Z,60.65
2022-08-17T16:03:15.264Z,63.03
2022-08-17T16:05:14.245Z,63.83
2022-08-17T16:07:44.142Z,63.32
2022-08-17T16:10:14.140Z,64.16
2022-08-17T16:12:44.342Z,64.89
2022-08-17T16:15:11.419Z,64.41
2022-08-17T16:17:40.576Z,64.21
2022-08-17T16:20:07.895Z,65.04
2022-08-17T16:22:36.400Z,66.26
2022-08-17T16:25:11.248Z,67.04
2022-08-17T16:27:37.637Z,66.93
2022-08-17T16:30:05.358Z,68.28
2022-08-17T16:32:32.970Z,60.96
2022-08-17T16:35:04.343Z,65.53
2022-08-17T16:37:30.938Z,66.72
2022-08-17T16:40:00.770Z,67.12
2022-08-17T16:42:29.481Z,67.14
2022-08-17T16:44:57.472Z,68.21
2022-08-17T16:47:23.929Z,68.31
2022-08-17T16:49:50.353Z,69.74
2022-08-17T16:52:32.786Z,69.94
2022-08-17T16:55:00.231Z,70.31
2022-08-17T16:57:27.250Z,70.63
2022-08-17T16:59:53.844Z,71.06
2022-08-17T17:02:25.978Z,71.49
2022-08-17T17:04:56.095Z,71.51
2022-08-17T17:07:34.512Z,71.65
2022-08-17T17:10:09.619Z,72.37
2022-08-17T17:13:02.713Z,71.90
2022-08-17T17:15:28.008Z,71.72
2022-08-17T17:17:56.580Z,72.10
2022-08-17T17:20:28.912Z,71.34
2022-08-17T17:23:04.254Z,71.25
2022-08-17T17:25:44.531Z,72.03
2022-08-17T17:28:38.522Z,71.24
2022-08-17T17:31:15.914Z,70.46
2022-08-17T17:33:56.391Z,69.65
2022-08-17T17:36:32.599Z,69.43
2022-08-17T17:39:01.655Z,68.78
2022-08-17T17:41:32.510Z,66.98
2022-08-17T17:44:25.163Z,67.53
2022-08-17T17:46:54.415Z,66.38
2022-08-17T17:49:20.929Z,67.72
2022-08-17T17:52:07.231Z,67.18
2022-08-17T17:54:52.941Z,69.24
2022-08-17T17:57:24.558Z,69.86
2022-08-17T18:00:09.125Z,71.28
2022-08-17T18:02:52.750Z,69.89
2022-08-17T18:05:19.523Z,67.58
2022-08-17T18:07:54.191Z,66.15
2022-08-17T18:10:30.037Z,66.10
2022-08-17T18:13:02.649Z,64.36
2022-08-17T18:15:35.114Z,64.08
2022-08-17T18:18:04.568Z,64.25
2022-08-17T18:20:43.199Z,63.89
2022-08-17T18:23:18.465Z,64.01
2022-08-17T18:25:49.464Z,63.35
2022-08-17T18:28:22.646Z,63.04
2022-08-17T18:31:06.876Z,64.02
2022-08-17T18:33:33.730Z,64.02
2022-08-17T18:36:01.565Z,64.58
2022-08-17T18:38:33.807Z,64.33
2022-08-17T18:41:00.160Z,63.79
2022-08-17T18:43:28.963Z,65.15
2022-08-17T18:46:28.970Z,63.75
2022-08-17T18:49:25.307Z,64.29
2022-08-17T18:52:07.080Z,64.90
2022-08-17T18:54:36.032Z,64.40
2022-08-17T18:57:02.396Z,63.98
2022-08-17T18:59:39.447Z,65.03
2022-08-17T19:02:21.603Z,64.06
2022-08-17T19:04:59.306Z,64.50
2022-08-17T19:07:30.914Z,64.24
2022-08-17T19:10:01.483Z,65.25
2022-08-17T19:12:34.854Z,64.05
2022-08-17T19:15:02.396Z,65.18
2022-08-17T19:17:32.989Z,64.90
2022-08-17T19:20:07.338Z,65.46
2022-08-17T19:22:47.466Z,65.78
2022-08-17T19:25:17.197Z,65.74
2022-08-17T19:27:50.827Z,65.69
2022-08-17T19:30:24.283Z,65.06
2022-08-17T19:32:50.927Z,65.30
2022-08-17T19:35:20.118Z,65.79
2022-08-17T19:38:00.748Z,65.66
2022-08-17T19:40:54.403Z,66.05
2022-08-17T19:43:18.069Z,66.08
2022-08-17T19:45:47.412Z,65.91
2022-08-17T19:48:19.790Z,67.21
2022-08-17T19:50:54.832Z,67.36
2022-08-17T19:53:47.376Z,66.20
2022-08-17T19:56:20.002Z,66.75
2022-08-17T19:58:58.117Z,66.46
2022-08-17T20:01:34.914Z,67.50
2022-08-17T20:04:06.721Z,67.37
2022-08-17T20:06:34.316Z,67.06
2022-08-17T20:09:14.828Z,67.64
2022-08-17T20:11:45.341Z,68.56
2022-08-17T20:14:17.449Z,68.41
2022-08-17T20:16:43.790Z,68.28
2022-08-17T20:19:28.845Z,67.21
2022-08-17T20:22:01.727Z,67.79
2022-08-17T20:24:28.064Z,67.04
2022-08-17T20:27:09.913Z,68.06
2022-08-17T20:29:58.213Z,67.79
2022-08-17T20:32:55.254Z,68.19
2022-08-17T20:35:30.700Z,67.24
2022-08-17T20:37:58.576Z,67.44
2022-08-17T20:40:28.305Z,66.79
2022-08-17T20:42:55.390Z,67.44
2022-08-17T20:45:21.727Z,66.53
2022-08-17T20:48:15.161Z,67.50
2022-08-17T20:50:38.725Z,66.88
2022-08-17T20:53:06.705Z,66.80
2022-08-17T20:55:52.054Z,67.15
2022-08-17T20:58:20.230Z,67.96
2022-08-17T21:00:59.031Z,67.61
2022-08-17T21:03:28.600Z,68.05
2022-08-17T21:06:17.121Z,67.90
2022-08-17T21:08:53.189Z,67.96
2022-08-17T21:11:57.114Z,68.44
2022-08-17T21:14:23.816Z,67.73
2022-08-17T21:17:02.388Z,68.03
2022-08-17T21:20:00.616Z,69.24
2022-08-17T21:22:42.109Z,68.48
2022-08-17T21:25:32.360Z,69.05
2022-08-17T21:28:33.628Z,69.62
2022-08-17T21:31:08.259Z,68.77
2022-08-17T21:33:36.574Z,69.81
2022-08-17T21:36:11.759Z,69.38
2022-08-17T21:38:40.675Z,69.73
2022-08-17T21:41:18.272Z,69.39
2022-08-17T21:43:47.691Z,70.02
2022-08-17T21:46:25.086Z,70.54
2022-08-17T21:48:53.685Z,70.85
2022-08-17T21:51:23.179Z,71.22
2022-08-17T21:53:55.775Z,70.62
2022-08-17T21:56:27.234Z,71.12
2022-08-17T21:59:01.709Z,69.86
2022-08-17T22:01:28.126Z,70.68
2022-08-17T22:04:05.608Z,71.35
2022-08-17T22:06:40.360Z,70.30
2022-08-17T22:09:09.396Z,71.24
2022-08-17T22:11:54.177Z,69.88
2022-08-17T22:14:52.889Z,70.08
2022-08-17T22:17:22.341Z,70.44
2022-08-17T22:19:54.135Z,70.71
2022-08-17T22:22:24.437Z,71.04
2022-08-17T22:25:11.422Z,69.87
2022-08-17T22:28:04.006Z,69.94
2022-08-17T22:30:41.628Z,70.42
2022-08-17T22:33:26.508Z,70.21
2022-08-17T22:36:07.787Z,70.14
2022-08-17T22:38:34.305Z,70.73
2022-08-17T22:41:34.541Z,70.95
2022-08-17T22:44:27.084Z,71.25
2022-08-17T22:46:56.051Z,71.86
2022-08-17T22:49:26.517Z,70.98
2022-08-17T22:52:03.416Z,70.01
2022-08-17T22:54:48.571Z,70.98
2022-08-17T22:57:33.978Z,70.88
2022-08-17T23:00:00.721Z,71.49
2022-08-17T23:02:27.081Z,71.60
2022-08-17T23:05:16.790Z,71.64
2022-08-17T23:07:44.226Z,71.85
2022-08-17T23:10:11.838Z,72.37
2022-08-17T23:12:39.523Z,72.12
2022-08-17T23:15:10.611Z,71.50
2022-08-17T23:17:37.753Z,72.22
2022-08-17T23:20:05.604Z,72.68
2022-08-17T23:22:32.738Z,72.30
2022-08-17T23:24:59.738Z,72.21
2022-08-17T23:27:29.326Z,71.88
2022-08-17T23:29:55.765Z,72.35
2022-08-17T23:32:22.814Z,72.82
2022-08-17T23:34:50.795Z,73.95
2022-08-17T23:37:18.180Z,72.41
2022-08-17T23:39:45.116Z,72.36
2022-08-17T23:42:13.325Z,73.27
2022-08-17T23:44:41.548Z,72.64
2022-08-17T23:47:08.040Z,72.75
2022-08-17T23:49:36.038Z,72.46
2022-08-17T23:52:04.929Z,72.66
2022-08-17T23:54:33.409Z,73.02
2022-08-17T23:57:00.717Z,72.62
2022-08-17T23:59:27.475Z,72.20
